sensor_id;sensor_type;location;lat;lon;timestamp;temperature;humidity
3186;DHT22;1604;53.700;10.252;2024-02-28T00:02:41;3.50;99.90
3186;DHT22;1604;53.700;10.252;2024-02-28T00:05:43;3.50;99.90
3186;DHT22;1604;53.700;10.252;2024-02-28T00:08:46;3.50;99.90
3186;DHT22;1604;53.700;10.252;2024-02-28T00:11:49;3.50;99.90
3186;DHT22;1604;53.700;10.252;2024-02-28T00:14:51;3.50;99.90
3186;DHT22;1604;53.700;10.252;2024-02-28T00:17:54;3.50;99.90
3186;DHT22;1604;53.700;10.252;2024-02-28T00:20:56;3.50;99.90
3186;DHT22;1604;53.700;10.252;2024-02-28T00:23:59;3.50;99.90
3186;DHT22;1604;53.700;10.252;2024-02-28T00:27:02;3.50;99.90
3186;DHT22;1604;53.700;10.252;2024-02-28T00:30:05;3.50;99.90
3186;DHT22;1604;53.700;10.252;2024-02-28T00:33:08;3.50;99.90
3186;DHT22;1604;53.700;10.252;2024-02-28T00:36:09;3.50;99.90
3186;DHT22;1604;53.700;10.252;2024-02-28T00:39:11;3.50;99.90
3186;DHT22;1604;53.700;10.252;2024-02-28T00:42:15;3.60;99.90
3186;DHT22;1604;53.700;10.252;2024-02-28T00:45:17;3.60;99.90
3186;DHT22;1604;53.700;10.252;2024-02-28T00:48:19;3.60;99.90
3186;DHT22;1604;53.700;10.252;2024-02-28T00:51:20;3.60;99.90
3186;DHT22;1604;53.700;10.252;2024-02-28T00:54:22;3.60;99.90
3186;DHT22;1604;53.700;10.252;2024-02-28T00:57:27;3.50;99.90
3186;DHT22;1604;53.700;10.252;2024-02-28T01:00:29;3.50;99.90
3186;DHT22;1604;53.700;10.252;2024-02-28T01:03:31;3.50;99.90
3186;DHT22;1604;53.700;10.252;2024-02-28T01:06:32;3.40;99.90
3186;DHT22;1604;53.700;10.252;2024-02-28T01:09:35;3.40;99.90
3186;DHT22;1604;53.700;10.252;2024-02-28T01:12:38;3.40;99.90
3186;DHT22;1604;53.700;10.252;2024-02-28T01:15:40;3.40;99.90
3186;DHT22;1604;53.700;10.252;2024-02-28T01:18:43;3.40;99.90
3186;DHT22;1604;53.700;10.252;2024-02-28T01:21:45;3.40;99.90
3186;DHT22;1604;53.700;10.252;2024-02-28T01:24:46;3.50;99.90
3186;DHT22;1604;53.700;10.252;2024-02-28T01:27:50;3.50;99.90
3186;DHT22;1604;53.700;10.252;2024-02-28T01:30:52;3.40;99.90
3186;DHT22;1604;53.700;10.252;2024-02-28T01:33:54;3.40;99.90
3186;DHT22;1604;53.700;10.252;2024-02-28T01:36:56;3.40;99.90
3186;DHT22;1604;53.700;10.252;2024-02-28T01:39:58;3.40;99.90
3186;DHT22;1604;53.700;10.252;2024-02-28T01:43:04;3.40;99.90
3186;DHT22;1604;53.700;10.252;2024-02-28T01:46:20;3.40;99.90
3186;DHT22;1604;53.700;10.252;2024-02-28T01:49:23;3.40;99.90
3186;DHT22;1604;53.700;10.252;2024-02-28T01:52:25;3.40;99.90
3186;DHT22;1604;53.700;10.252;2024-02-28T01:55:27;3.40;99.90
3186;DHT22;1604;53.700;10.252;2024-02-28T01:58:31;3.40;99.90
3186;DHT22;1604;53.700;10.252;2024-02-28T02:01:34;3.40;99.90
3186;DHT22;1604;53.700;10.252;2024-02-28T02:04:36;3.30;99.90
3186;DHT22;1604;53.700;10.252;2024-02-28T02:07:38;3.30;99.90
3186;DHT22;1604;53.700;10.252;2024-02-28T02:10:41;3.30;99.90
3186;DHT22;1604;53.700;10.252;2024-02-28T02:13:52;3.30;99.90
3186;DHT22;1604;53.700;10.252;2024-02-28T02:16:55;3.20;99.90
3186;DHT22;1604;53.700;10.252;2024-02-28T02:19:57;3.20;99.90
3186;DHT22;1604;53.700;10.252;2024-02-28T02:23:01;3.20;99.90
3186;DHT22;1604;53.700;10.252;2024-02-28T02:26:03;3.10;99.90
3186;DHT22;1604;53.700;10.252;2024-02-28T02:29:05;3.10;99.90
3186;DHT22;1604;53.700;10.252;2024-02-28T02:32:09;3.10;99.90
3186;DHT22;1604;53.700;10.252;2024-02-28T02:35:11;3.10;99.90
3186;DHT22;1604;53.700;10.252;2024-02-28T02:38:14;3.20;99.90
3186;DHT22;1604;53.700;10.252;2024-02-28T02:41:16;3.10;99.90
3186;DHT22;1604;53.700;10.252;2024-02-28T02:44:19;3.10;99.90
3186;DHT22;1604;53.700;10.252;2024-02-28T02:47:21;3.10;99.90
3186;DHT22;1604;53.700;10.252;2024-02-28T02:50:23;3.10;99.90
3186;DHT22;1604;53.700;10.252;2024-02-28T02:53:26;3.10;99.90
3186;DHT22;1604;53.700;10.252;2024-02-28T02:56:28;3.10;99.90
3186;DHT22;1604;53.700;10.252;2024-02-28T02:59:30;3.10;99.90
3186;DHT22;1604;53.700;10.252;2024-02-28T03:02:32;3.10;99.90
3186;DHT22;1604;53.700;10.252;2024-02-28T03:05:34;3.10;99.90
3186;DHT22;1604;53.700;10.252;2024-02-28T03:08:38;3.10;99.90
3186;DHT22;1604;53.700;10.252;2024-02-28T03:11:39;3.10;99.90
3186;DHT22;1604;53.700;10.252;2024-02-28T03:14:42;3.10;99.90
3186;DHT22;1604;53.700;10.252;2024-02-28T03:17:44;3.10;99.90
3186;DHT22;1604;53.700;10.252;2024-02-28T03:20:46;3.10;99.90
3186;DHT22;1604;53.700;10.252;2024-02-28T03:23:49;3.10;99.90
3186;DHT22;1604;53.700;10.252;2024-02-28T03:26:51;3.00;99.90
3186;DHT22;1604;53.700;10.252;2024-02-28T03:29:53;3.00;99.90
3186;DHT22;1604;53.700;10.252;2024-02-28T03:32:55;3.00;99.90
3186;DHT22;1604;53.700;10.252;2024-02-28T03:35:57;3.00;99.90
3186;DHT22;1604;53.700;10.252;2024-02-28T03:39:00;3.00;99.90
3186;DHT22;1604;53.700;10.252;2024-02-28T03:42:02;3.00;99.90
3186;DHT22;1604;53.700;10.252;2024-02-28T03:45:05;2.90;99.90
3186;DHT22;1604;53.700;10.252;2024-02-28T03:48:07;2.90;99.90
3186;DHT22;1604;53.700;10.252;2024-02-28T03:51:09;2.90;99.90
3186;DHT22;1604;53.700;10.252;2024-02-28T03:54:12;2.90;99.90
3186;DHT22;1604;53.700;10.252;2024-02-28T03:57:15;2.90;99.90
3186;DHT22;1604;53.700;10.252;2024-02-28T04:00:18;2.80;99.90
3186;DHT22;1604;53.700;10.252;2024-02-28T04:03:20;2.80;99.90
3186;DHT22;1604;53.700;10.252;2024-02-28T04:06:21;2.80;99.90
3186;DHT22;1604;53.700;10.252;2024-02-28T04:09:25;2.80;99.90
3186;DHT22;1604;53.700;10.252;2024-02-28T04:12:27;2.80;99.90
3186;DHT22;1604;53.700;10.252;2024-02-28T04:15:30;2.80;99.90
3186;DHT22;1604;53.700;10.252;2024-02-28T04:18:32;2.80;99.90
3186;DHT22;1604;53.700;10.252;2024-02-28T04:21:34;2.80;99.90
3186;DHT22;1604;53.700;10.252;2024-02-28T04:24:37;2.80;99.90
3186;DHT22;1604;53.700;10.252;2024-02-28T04:27:39;2.80;99.90
3186;DHT22;1604;53.700;10.252;2024-02-28T04:30:41;2.80;99.90
3186;DHT22;1604;53.700;10.252;2024-02-28T04:33:43;2.80;99.90
3186;DHT22;1604;53.700;10.252;2024-02-28T04:36:45;2.80;99.90
3186;DHT22;1604;53.700;10.252;2024-02-28T04:39:49;2.80;99.90
3186;DHT22;1604;53.700;10.252;2024-02-28T04:42:51;2.80;99.90
3186;DHT22;1604;53.700;10.252;2024-02-28T04:45:53;2.80;99.90
3186;DHT22;1604;53.700;10.252;2024-02-28T04:48:54;2.80;99.90
3186;DHT22;1604;53.700;10.252;2024-02-28T04:51:56;2.80;99.90
3186;DHT22;1604;53.700;10.252;2024-02-28T04:55:00;2.80;99.90
3186;DHT22;1604;53.700;10.252;2024-02-28T04:58:02;2.80;99.90
3186;DHT22;1604;53.700;10.252;2024-02-28T05:01:04;2.80;99.90
3186;DHT22;1604;53.700;10.252;2024-02-28T05:04:07;2.80;99.90
3186;DHT22;1604;53.700;10.252;2024-02-28T05:07:09;2.80;99.90
3186;DHT22;1604;53.700;10.252;2024-02-28T05:10:12;2.80;99.90
3186;DHT22;1604;53.700;10.252;2024-02-28T05:13:14;2.80;99.90
3186;DHT22;1604;53.700;10.252;2024-02-28T05:16:16;2.80;99.90
3186;DHT22;1604;53.700;10.252;2024-02-28T05:19:18;2.80;99.90
3186;DHT22;1604;53.700;10.252;2024-02-28T05:22:20;2.80;99.90
3186;DHT22;1604;53.700;10.252;2024-02-28T05:25:24;2.80;99.90
3186;DHT22;1604;53.700;10.252;2024-02-28T05:28:25;2.80;99.90
3186;DHT22;1604;53.700;10.252;2024-02-28T05:31:28;2.80;99.90
3186;DHT22;1604;53.700;10.252;2024-02-28T05:34:29;2.80;99.90
3186;DHT22;1604;53.700;10.252;2024-02-28T05:37:31;2.70;99.90
3186;DHT22;1604;53.700;10.252;2024-02-28T05:40:36;2.70;99.90
3186;DHT22;1604;53.700;10.252;2024-02-28T05:43:38;2.70;99.90
3186;DHT22;1604;53.700;10.252;2024-02-28T05:46:40;2.70;99.90
3186;DHT22;1604;53.700;10.252;2024-02-28T05:49:42;2.70;99.90
3186;DHT22;1604;53.700;10.252;2024-02-28T05:52:44;2.60;99.90
3186;DHT22;1604;53.700;10.252;2024-02-28T05:55:47;2.70;99.90
3186;DHT22;1604;53.700;10.252;2024-02-28T05:58:49;2.70;99.90
3186;DHT22;1604;53.700;10.252;2024-02-28T06:01:52;2.70;99.90
3186;DHT22;1604;53.700;10.252;2024-02-28T06:04:54;2.70;99.90
3186;DHT22;1604;53.700;10.252;2024-02-28T06:07:56;2.70;99.90
3186;DHT22;1604;53.700;10.252;2024-02-28T06:10:59;2.70;99.90
3186;DHT22;1604;53.700;10.252;2024-02-28T06:14:01;2.70;99.90
3186;DHT22;1604;53.700;10.252;2024-02-28T06:17:04;2.70;99.90
3186;DHT22;1604;53.700;10.252;2024-02-28T06:20:07;2.70;99.90
3186;DHT22;1604;53.700;10.252;2024-02-28T06:23:09;2.70;99.90
3186;DHT22;1604;53.700;10.252;2024-02-28T06:26:13;2.70;99.90
3186;DHT22;1604;53.700;10.252;2024-02-28T06:29:17;2.70;99.90
3186;DHT22;1604;53.700;10.252;2024-02-28T06:32:23;2.70;99.90
3186;DHT22;1604;53.700;10.252;2024-02-28T06:35:25;2.80;99.90
3186;DHT22;1604;53.700;10.252;2024-02-28T06:38:27;2.80;99.90
3186;DHT22;1604;53.700;10.252;2024-02-28T06:41:34;2.70;99.90
3186;DHT22;1604;53.700;10.252;2024-02-28T06:44:36;2.80;99.90
3186;DHT22;1604;53.700;10.252;2024-02-28T06:47:38;2.80;99.90
3186;DHT22;1604;53.700;10.252;2024-02-28T06:50:40;2.80;99.90
3186;DHT22;1604;53.700;10.252;2024-02-28T06:53:42;2.80;99.90
3186;DHT22;1604;53.700;10.252;2024-02-28T06:56:46;2.90;99.90
3186;DHT22;1604;53.700;10.252;2024-02-28T06:59:48;2.80;99.90
3186;DHT22;1604;53.700;10.252;2024-02-28T07:02:49;2.90;99.90
3186;DHT22;1604;53.700;10.252;2024-02-28T07:05:52;2.90;99.90
3186;DHT22;1604;53.700;10.252;2024-02-28T07:08:55;2.90;99.90
3186;DHT22;1604;53.700;10.252;2024-02-28T07:11:58;3.00;99.90
3186;DHT22;1604;53.700;10.252;2024-02-28T07:15:01;3.00;99.90
3186;DHT22;1604;53.700;10.252;2024-02-28T07:18:03;2.90;99.90
3186;DHT22;1604;53.700;10.252;2024-02-28T07:21:05;3.00;99.90
3186;DHT22;1604;53.700;10.252;2024-02-28T07:24:08;3.00;99.90
3186;DHT22;1604;53.700;10.252;2024-02-28T07:27:12;3.00;99.90
3186;DHT22;1604;53.700;10.252;2024-02-28T07:30:14;3.00;99.90
3186;DHT22;1604;53.700;10.252;2024-02-28T07:33:16;3.00;99.90
3186;DHT22;1604;53.700;10.252;2024-02-28T07:36:18;3.10;99.90
3186;DHT22;1604;53.700;10.252;2024-02-28T07:39:20;3.10;99.90
3186;DHT22;1604;53.700;10.252;2024-02-28T07:42:23;3.10;99.90
3186;DHT22;1604;53.700;10.252;2024-02-28T07:45:25;3.10;99.90
3186;DHT22;1604;53.700;10.252;2024-02-28T07:48:27;3.20;99.90
3186;DHT22;1604;53.700;10.252;2024-02-28T07:51:29;3.20;99.90
3186;DHT22;1604;53.700;10.252;2024-02-28T07:54:31;3.30;99.90
3186;DHT22;1604;53.700;10.252;2024-02-28T07:57:34;3.40;99.90
3186;DHT22;1604;53.700;10.252;2024-02-28T08:00:36;3.40;99.90
3186;DHT22;1604;53.700;10.252;2024-02-28T08:03:38;3.40;99.90
3186;DHT22;1604;53.700;10.252;2024-02-28T08:06:41;3.50;99.90
3186;DHT22;1604;53.700;10.252;2024-02-28T08:09:43;3.60;99.90
3186;DHT22;1604;53.700;10.252;2024-02-28T08:12:47;3.70;99.90
3186;DHT22;1604;53.700;10.252;2024-02-28T08:15:48;3.70;99.90
3186;DHT22;1604;53.700;10.252;2024-02-28T08:18:51;3.80;99.90
3186;DHT22;1604;53.700;10.252;2024-02-28T08:21:52;3.80;99.90
3186;DHT22;1604;53.700;10.252;2024-02-28T08:24:54;3.90;99.90
3186;DHT22;1604;53.700;10.252;2024-02-28T08:27:58;3.90;99.90
3186;DHT22;1604;53.700;10.252;2024-02-28T08:31:00;3.90;99.90
3186;DHT22;1604;53.700;10.252;2024-02-28T08:34:02;3.90;99.90
3186;DHT22;1604;53.700;10.252;2024-02-28T08:37:05;4.00;99.90
3186;DHT22;1604;53.700;10.252;2024-02-28T08:40:07;4.10;99.90
3186;DHT22;1604;53.700;10.252;2024-02-28T08:43:11;4.20;99.90
3186;DHT22;1604;53.700;10.252;2024-02-28T08:46:14;4.20;99.90
3186;DHT22;1604;53.700;10.252;2024-02-28T08:49:16;4.30;99.90
3186;DHT22;1604;53.700;10.252;2024-02-28T08:52:18;4.30;99.90
3186;DHT22;1604;53.700;10.252;2024-02-28T08:55:20;4.50;99.90
3186;DHT22;1604;53.700;10.252;2024-02-28T08:58:23;4.60;99.90
3186;DHT22;1604;53.700;10.252;2024-02-28T09:01:26;4.70;99.90
3186;DHT22;1604;53.700;10.252;2024-02-28T09:04:28;4.80;99.90
3186;DHT22;1604;53.700;10.252;2024-02-28T09:07:30;4.80;99.90
3186;DHT22;1604;53.700;10.252;2024-02-28T09:10:32;4.90;99.90
3186;DHT22;1604;53.700;10.252;2024-02-28T09:13:36;4.90;99.90
3186;DHT22;1604;53.700;10.252;2024-02-28T09:16:38;5.00;99.90
3186;DHT22;1604;53.700;10.252;2024-02-28T09:19:40;5.10;99.90
3186;DHT22;1604;53.700;10.252;2024-02-28T09:22:42;5.20;99.90
3186;DHT22;1604;53.700;10.252;2024-02-28T09:25:44;5.30;99.90
3186;DHT22;1604;53.700;10.252;2024-02-28T09:28:47;5.40;99.90
3186;DHT22;1604;53.700;10.252;2024-02-28T09:31:49;5.50;99.90
3186;DHT22;1604;53.700;10.252;2024-02-28T09:34:51;5.60;99.90
3186;DHT22;1604;53.700;10.252;2024-02-28T09:37:53;5.60;99.90
3186;DHT22;1604;53.700;10.252;2024-02-28T09:40:55;5.70;99.90
3186;DHT22;1604;53.700;10.252;2024-02-28T09:44:00;5.70;99.90
3186;DHT22;1604;53.700;10.252;2024-02-28T09:47:04;5.80;99.90
3186;DHT22;1604;53.700;10.252;2024-02-28T09:50:07;5.90;99.90
3186;DHT22;1604;53.700;10.252;2024-02-28T09:53:10;6.00;99.90
3186;DHT22;1604;53.700;10.252;2024-02-28T09:56:12;6.10;99.90
3186;DHT22;1604;53.700;10.252;2024-02-28T09:59:16;6.20;99.90
3186;DHT22;1604;53.700;10.252;2024-02-28T10:02:20;6.20;99.90
3186;DHT22;1604;53.700;10.252;2024-02-28T10:05:23;6.30;99.90
3186;DHT22;1604;53.700;10.252;2024-02-28T10:08:27;6.40;99.90
3186;DHT22;1604;53.700;10.252;2024-02-28T10:11:29;6.40;99.90
3186;DHT22;1604;53.700;10.252;2024-02-28T10:14:33;6.40;99.90
3186;DHT22;1604;53.700;10.252;2024-02-28T10:17:35;6.50;99.90
3186;DHT22;1604;53.700;10.252;2024-02-28T10:20:37;6.50;99.90
3186;DHT22;1604;53.700;10.252;2024-02-28T10:23:39;6.60;99.90
3186;DHT22;1604;53.700;10.252;2024-02-28T10:26:44;6.70;99.90
3186;DHT22;1604;53.700;10.252;2024-02-28T10:29:50;6.80;99.90
3186;DHT22;1604;53.700;10.252;2024-02-28T10:32:52;6.80;99.90
3186;DHT22;1604;53.700;10.252;2024-02-28T10:35:54;7.00;99.90
3186;DHT22;1604;53.700;10.252;2024-02-28T10:38:57;7.10;99.90
3186;DHT22;1604;53.700;10.252;2024-02-28T10:41:59;7.30;99.90
3186;DHT22;1604;53.700;10.252;2024-02-28T10:45:03;7.40;99.90
3186;DHT22;1604;53.700;10.252;2024-02-28T10:48:06;7.60;99.90
3186;DHT22;1604;53.700;10.252;2024-02-28T10:51:14;7.80;99.90
3186;DHT22;1604;53.700;10.252;2024-02-28T10:54:20;7.90;99.90
3186;DHT22;1604;53.700;10.252;2024-02-28T10:57:24;8.00;99.90
3186;DHT22;1604;53.700;10.252;2024-02-28T11:00:28;8.00;99.90
3186;DHT22;1604;53.700;10.252;2024-02-28T11:03:31;8.10;99.90
3186;DHT22;1604;53.700;10.252;2024-02-28T11:06:46;8.10;99.90
3186;DHT22;1604;53.700;10.252;2024-02-28T11:09:54;8.20;99.90
3186;DHT22;1604;53.700;10.252;2024-02-28T11:12:57;8.10;99.90
3186;DHT22;1604;53.700;10.252;2024-02-28T11:16:09;8.10;99.90
3186;DHT22;1604;53.700;10.252;2024-02-28T11:19:19;8.20;99.90
3186;DHT22;1604;53.700;10.252;2024-02-28T11:22:21;8.20;99.90
3186;DHT22;1604;53.700;10.252;2024-02-28T11:25:24;8.30;99.90
3186;DHT22;1604;53.700;10.252;2024-02-28T11:28:26;8.20;99.90
3186;DHT22;1604;53.700;10.252;2024-02-28T11:31:29;8.20;99.90
3186;DHT22;1604;53.700;10.252;2024-02-28T11:34:31;8.30;99.90
3186;DHT22;1604;53.700;10.252;2024-02-28T11:37:34;8.40;99.90
3186;DHT22;1604;53.700;10.252;2024-02-28T11:40:36;8.60;99.90
3186;DHT22;1604;53.700;10.252;2024-02-28T11:43:37;8.60;99.90
3186;DHT22;1604;53.700;10.252;2024-02-28T11:46:44;8.60;99.90
3186;DHT22;1604;53.700;10.252;2024-02-28T11:49:47;8.60;99.90
3186;DHT22;1604;53.700;10.252;2024-02-28T11:52:48;8.70;99.90
3186;DHT22;1604;53.700;10.252;2024-02-28T11:55:51;8.70;99.90
3186;DHT22;1604;53.700;10.252;2024-02-28T11:58:53;8.70;99.90
3186;DHT22;1604;53.700;10.252;2024-02-28T12:01:57;8.70;99.90
3186;DHT22;1604;53.700;10.252;2024-02-28T12:05:00;8.60;99.90
3186;DHT22;1604;53.700;10.252;2024-02-28T12:08:04;8.60;99.90
3186;DHT22;1604;53.700;10.252;2024-02-28T12:11:07;8.50;99.90
3186;DHT22;1604;53.700;10.252;2024-02-28T12:14:12;8.50;99.90
3186;DHT22;1604;53.700;10.252;2024-02-28T12:17:16;8.50;99.90
3186;DHT22;1604;53.700;10.252;2024-02-28T12:20:18;8.50;99.90
3186;DHT22;1604;53.700;10.252;2024-02-28T12:23:20;8.50;99.90
3186;DHT22;1604;53.700;10.252;2024-02-28T12:26:23;8.60;99.90
3186;DHT22;1604;53.700;10.252;2024-02-28T12:29:24;8.60;99.90
3186;DHT22;1604;53.700;10.252;2024-02-28T12:32:28;8.60;99.90
3186;DHT22;1604;53.700;10.252;2024-02-28T12:35:30;8.70;99.90
3186;DHT22;1604;53.700;10.252;2024-02-28T12:38:32;8.80;99.90
3186;DHT22;1604;53.700;10.252;2024-02-28T12:41:34;8.90;99.90
3186;DHT22;1604;53.700;10.252;2024-02-28T12:44:37;9.00;99.90
3186;DHT22;1604;53.700;10.252;2024-02-28T12:47:42;9.00;99.90
3186;DHT22;1604;53.700;10.252;2024-02-28T12:50:44;9.00;99.90
3186;DHT22;1604;53.700;10.252;2024-02-28T12:53:46;9.20;99.90
3186;DHT22;1604;53.700;10.252;2024-02-28T12:56:50;9.20;99.90
3186;DHT22;1604;53.700;10.252;2024-02-28T12:59:52;9.20;99.90
3186;DHT22;1604;53.700;10.252;2024-02-28T13:02:55;9.20;99.90
3186;DHT22;1604;53.700;10.252;2024-02-28T13:05:57;9.20;99.80
3186;DHT22;1604;53.700;10.252;2024-02-28T13:08:59;9.10;99.90
3186;DHT22;1604;53.700;10.252;2024-02-28T13:12:01;9.10;99.90
3186;DHT22;1604;53.700;10.252;2024-02-28T13:15:04;9.10;99.90
3186;DHT22;1604;53.700;10.252;2024-02-28T13:18:07;9.00;99.90
3186;DHT22;1604;53.700;10.252;2024-02-28T13:21:11;9.10;99.90
3186;DHT22;1604;53.700;10.252;2024-02-28T13:24:13;9.00;99.90
3186;DHT22;1604;53.700;10.252;2024-02-28T13:27:17;9.00;99.90
3186;DHT22;1604;53.700;10.252;2024-02-28T13:30:19;8.90;99.90
3186;DHT22;1604;53.700;10.252;2024-02-28T13:33:22;8.90;99.90
3186;DHT22;1604;53.700;10.252;2024-02-28T13:36:24;8.90;99.90
3186;DHT22;1604;53.700;10.252;2024-02-28T13:39:26;8.80;99.90
3186;DHT22;1604;53.700;10.252;2024-02-28T13:42:28;8.80;99.90
3186;DHT22;1604;53.700;10.252;2024-02-28T13:45:30;8.80;99.90
3186;DHT22;1604;53.700;10.252;2024-02-28T13:48:33;8.70;99.90
3186;DHT22;1604;53.700;10.252;2024-02-28T13:51:36;8.80;99.90
3186;DHT22;1604;53.700;10.252;2024-02-28T13:54:38;8.70;99.90
3186;DHT22;1604;53.700;10.252;2024-02-28T13:57:40;8.70;99.90
3186;DHT22;1604;53.700;10.252;2024-02-28T14:00:42;8.60;99.90
3186;DHT22;1604;53.700;10.252;2024-02-28T14:03:47;8.60;99.90
3186;DHT22;1604;53.700;10.252;2024-02-28T14:06:49;8.60;99.90
3186;DHT22;1604;53.700;10.252;2024-02-28T14:09:51;8.60;99.90
3186;DHT22;1604;53.700;10.252;2024-02-28T14:12:53;8.50;99.90
3186;DHT22;1604;53.700;10.252;2024-02-28T14:15:55;8.60;99.90
3186;DHT22;1604;53.700;10.252;2024-02-28T14:18:58;8.50;99.90
3186;DHT22;1604;53.700;10.252;2024-02-28T14:22:00;8.50;99.90
3186;DHT22;1604;53.700;10.252;2024-02-28T14:25:02;8.40;99.90
3186;DHT22;1604;53.700;10.252;2024-02-28T14:28:06;8.40;99.90
3186;DHT22;1604;53.700;10.252;2024-02-28T14:31:08;8.40;99.90
3186;DHT22;1604;53.700;10.252;2024-02-28T14:34:11;8.30;99.90
3186;DHT22;1604;53.700;10.252;2024-02-28T14:37:13;8.30;99.90
3186;DHT22;1604;53.700;10.252;2024-02-28T14:40:15;8.20;99.90
3186;DHT22;1604;53.700;10.252;2024-02-28T14:43:17;8.20;99.90
3186;DHT22;1604;53.700;10.252;2024-02-28T14:46:19;8.10;99.90
3186;DHT22;1604;53.700;10.252;2024-02-28T14:49:23;8.10;99.90
3186;DHT22;1604;53.700;10.252;2024-02-28T14:52:25;8.20;99.90
3186;DHT22;1604;53.700;10.252;2024-02-28T14:55:28;8.20;99.90
3186;DHT22;1604;53.700;10.252;2024-02-28T14:58:30;8.20;99.90
3186;DHT22;1604;53.700;10.252;2024-02-28T15:01:32;8.20;99.90
3186;DHT22;1604;53.700;10.252;2024-02-28T15:04:36;8.20;99.90
3186;DHT22;1604;53.700;10.252;2024-02-28T15:07:38;8.20;99.90
3186;DHT22;1604;53.700;10.252;2024-02-28T15:10:40;8.10;99.90
3186;DHT22;1604;53.700;10.252;2024-02-28T15:13:42;8.10;99.90
3186;DHT22;1604;53.700;10.252;2024-02-28T15:16:44;8.10;99.90
3186;DHT22;1604;53.700;10.252;2024-02-28T15:19:48;8.00;99.90
3186;DHT22;1604;53.700;10.252;2024-02-28T15:22:50;8.00;99.90
3186;DHT22;1604;53.700;10.252;2024-02-28T15:25:52;8.00;99.90
3186;DHT22;1604;53.700;10.252;2024-02-28T15:28:54;8.00;99.90
3186;DHT22;1604;53.700;10.252;2024-02-28T15:31:56;7.90;99.90
3186;DHT22;1604;53.700;10.252;2024-02-28T15:35:00;7.90;99.90
3186;DHT22;1604;53.700;10.252;2024-02-28T15:38:01;7.90;99.90
3186;DHT22;1604;53.700;10.252;2024-02-28T15:41:03;7.90;99.90
3186;DHT22;1604;53.700;10.252;2024-02-28T15:44:06;7.90;99.90
3186;DHT22;1604;53.700;10.252;2024-02-28T15:47:08;7.90;99.90
3186;DHT22;1604;53.700;10.252;2024-02-28T15:50:12;7.90;99.90
3186;DHT22;1604;53.700;10.252;2024-02-28T15:53:14;7.80;99.90
3186;DHT22;1604;53.700;10.252;2024-02-28T15:56:16;7.80;99.90
3186;DHT22;1604;53.700;10.252;2024-02-28T15:59:17;7.80;99.90
3186;DHT22;1604;53.700;10.252;2024-02-28T16:02:19;7.80;99.90
3186;DHT22;1604;53.700;10.252;2024-02-28T16:05:23;7.80;99.90
3186;DHT22;1604;53.700;10.252;2024-02-28T16:08:27;7.80;99.90
3186;DHT22;1604;53.700;10.252;2024-02-28T16:11:29;7.80;99.90
3186;DHT22;1604;53.700;10.252;2024-02-28T16:14:31;7.80;99.90
3186;DHT22;1604;53.700;10.252;2024-02-28T16:17:33;7.70;99.90
3186;DHT22;1604;53.700;10.252;2024-02-28T16:20:36;7.70;99.90
3186;DHT22;1604;53.700;10.252;2024-02-28T16:23:38;7.70;99.90
3186;DHT22;1604;53.700;10.252;2024-02-28T16:26:40;7.60;99.90
3186;DHT22;1604;53.700;10.252;2024-02-28T16:29:42;7.60;99.90
3186;DHT22;1604;53.700;10.252;2024-02-28T16:32:44;7.60;99.90
3186;DHT22;1604;53.700;10.252;2024-02-28T16:35:48;7.60;99.90
3186;DHT22;1604;53.700;10.252;2024-02-28T16:38:50;7.60;99.90
3186;DHT22;1604;53.700;10.252;2024-02-28T16:41:54;7.60;99.90
3186;DHT22;1604;53.700;10.252;2024-02-28T16:44:56;7.50;99.90
3186;DHT22;1604;53.700;10.252;2024-02-28T16:47:58;7.50;99.90
3186;DHT22;1604;53.700;10.252;2024-02-28T16:51:01;7.50;99.90
3186;DHT22;1604;53.700;10.252;2024-02-28T16:54:03;7.50;99.90
3186;DHT22;1604;53.700;10.252;2024-02-28T16:57:05;7.50;99.90
3186;DHT22;1604;53.700;10.252;2024-02-28T17:00:08;7.40;99.90
3186;DHT22;1604;53.700;10.252;2024-02-28T17:03:10;7.40;99.90
3186;DHT22;1604;53.700;10.252;2024-02-28T17:06:13;7.30;99.90
3186;DHT22;1604;53.700;10.252;2024-02-28T17:09:15;7.20;99.90
3186;DHT22;1604;53.700;10.252;2024-02-28T17:12:17;7.20;99.90
3186;DHT22;1604;53.700;10.252;2024-02-28T17:15:19;7.10;99.90
3186;DHT22;1604;53.700;10.252;2024-02-28T17:18:21;7.10;99.90
3186;DHT22;1604;53.700;10.252;2024-02-28T17:21:24;7.10;99.90
3186;DHT22;1604;53.700;10.252;2024-02-28T17:24:26;7.10;99.90
3186;DHT22;1604;53.700;10.252;2024-02-28T17:27:28;7.10;99.90
3186;DHT22;1604;53.700;10.252;2024-02-28T17:30:30;7.10;99.90
3186;DHT22;1604;53.700;10.252;2024-02-28T17:33:32;7.00;99.90
3186;DHT22;1604;53.700;10.252;2024-02-28T17:36:36;7.00;99.90
3186;DHT22;1604;53.700;10.252;2024-02-28T17:39:40;7.00;99.90
3186;DHT22;1604;53.700;10.252;2024-02-28T17:42:42;6.90;99.90
3186;DHT22;1604;53.700;10.252;2024-02-28T17:45:44;6.80;99.90
3186;DHT22;1604;53.700;10.252;2024-02-28T17:48:49;6.80;99.90
3186;DHT22;1604;53.700;10.252;2024-02-28T17:51:53;6.70;99.90
3186;DHT22;1604;53.700;10.252;2024-02-28T17:54:56;6.70;99.90
3186;DHT22;1604;53.700;10.252;2024-02-28T17:57:58;6.70;99.90
3186;DHT22;1604;53.700;10.252;2024-02-28T18:01:00;6.70;99.90
3186;DHT22;1604;53.700;10.252;2024-02-28T18:04:05;6.70;99.90
3186;DHT22;1604;53.700;10.252;2024-02-28T18:07:09;6.70;99.90
3186;DHT22;1604;53.700;10.252;2024-02-28T18:10:11;6.70;99.90
3186;DHT22;1604;53.700;10.252;2024-02-28T18:13:13;6.70;99.90
3186;DHT22;1604;53.700;10.252;2024-02-28T18:16:18;6.70;99.90
3186;DHT22;1604;53.700;10.252;2024-02-28T18:19:24;6.70;99.90
3186;DHT22;1604;53.700;10.252;2024-02-28T18:22:28;6.70;99.90
3186;DHT22;1604;53.700;10.252;2024-02-28T18:25:30;6.70;99.90
3186;DHT22;1604;53.700;10.252;2024-02-28T18:28:32;6.70;99.90
3186;DHT22;1604;53.700;10.252;2024-02-28T18:31:37;6.70;99.90
3186;DHT22;1604;53.700;10.252;2024-02-28T18:34:39;6.80;99.90
3186;DHT22;1604;53.700;10.252;2024-02-28T18:37:43;6.80;99.90
3186;DHT22;1604;53.700;10.252;2024-02-28T18:40:45;6.80;99.90
3186;DHT22;1604;53.700;10.252;2024-02-28T18:43:47;6.70;99.90
3186;DHT22;1604;53.700;10.252;2024-02-28T18:46:49;6.70;99.90
3186;DHT22;1604;53.700;10.252;2024-02-28T18:49:51;6.60;99.90
3186;DHT22;1604;53.700;10.252;2024-02-28T18:52:55;6.60;99.90
3186;DHT22;1604;53.700;10.252;2024-02-28T18:55:57;6.60;99.90
3186;DHT22;1604;53.700;10.252;2024-02-28T18:58:59;6.60;99.90
3186;DHT22;1604;53.700;10.252;2024-02-28T19:02:01;6.60;99.90
3186;DHT22;1604;53.700;10.252;2024-02-28T19:05:05;6.60;99.90
3186;DHT22;1604;53.700;10.252;2024-02-28T19:08:08;6.60;99.90
3186;DHT22;1604;53.700;10.252;2024-02-28T19:11:10;6.50;99.90
3186;DHT22;1604;53.700;10.252;2024-02-28T19:14:12;6.50;99.90
3186;DHT22;1604;53.700;10.252;2024-02-28T19:17:14;6.50;99.90
3186;DHT22;1604;53.700;10.252;2024-02-28T19:23:20;6.50;99.90
3186;DHT22;1604;53.700;10.252;2024-02-28T19:26:22;6.40;99.90
3186;DHT22;1604;53.700;10.252;2024-02-28T19:29:25;6.40;99.90
3186;DHT22;1604;53.700;10.252;2024-02-28T19:32:27;6.40;99.90
3186;DHT22;1604;53.700;10.252;2024-02-28T19:35:29;6.40;99.90
3186;DHT22;1604;53.700;10.252;2024-02-28T19:38:32;6.40;99.90
3186;DHT22;1604;53.700;10.252;2024-02-28T19:41:34;6.40;99.90
3186;DHT22;1604;53.700;10.252;2024-02-28T19:44:39;6.40;99.90
3186;DHT22;1604;53.700;10.252;2024-02-28T19:47:41;6.40;99.90
3186;DHT22;1604;53.700;10.252;2024-02-28T19:50:43;6.40;99.90
3186;DHT22;1604;53.700;10.252;2024-02-28T19:53:46;6.40;99.90
3186;DHT22;1604;53.700;10.252;2024-02-28T19:56:48;6.40;99.90